Airfield :
LOGIN :

Register | Disclaimer

   EN    FR    IT 

 










Legend :    VFR   Marginal VFR   IFR   Intensive IFR   Very Intensive IFR
Visi :
Ceiling :
>= 8 km
>= 3000ft
5 to 8 km
1000 to 3000 ft
1500m to 5 km
500 to 1000 ft
800 to 1500m
200 to 500 ft
< 800m
< 200 ft
Symbols :   Thunderstorms  Fog  Heavy snow  Heavy precipitations  Wind > 20 kt
SIGMETs :     Misc.  Thunderstorms  Icing  Turbulence  Mountain Waves  Volcanic Ashes






- Airport Elevation : 194 ft


EBCV - Chièvres

CURRENT METAR :
  • 281355Z AUTO 26017KT 9999 OVC017/// 12/09 Q1003 WHT

EXPIRED METARs :
  • 281343Z AUTO 26017KT 9999 OVC017/// 12/09 Q1002 WHT
  • 281325Z AUTO 26017KT 9999 OVC014/// 11/09 Q1002 GRN
  • 281255Z AUTO 26016KT 5000 -RA OVC014/// 11/10 Q1002 GRN
  • 281225Z AUTO 26019KT 5000 -RA OVC012/// 11/10 Q1002 GRN
  • 281155Z AUTO 26015KT 9999 OVC011/// 12/10 Q1002 GRN
  • 281125Z AUTO 26017KT 9999 OVC009/// 11/10 Q1001 GRN

TAF TAF EBCV
Valid from the 28 at 13:00 until the 28 at 22:00 UTC


281141Z 2813/2822 26015G25KT 9999 SCT015 BKN020
TEMPO 2814/2816 26020G30KT 6000 -SHRA SCT012TCU BKN015
BECMG 2820/2822 22010G20KT 5000 -RA BKN008 OVC010 BY EBWM



MET'MAP, your aeronautical weather chart ! - Copyright ORBIFLY December 2007 - Disclaimer

ORBIFLY MET'MAP TEAM :

Programming & Development : Alexandra Zaïnal
Concept & original design : Baudouin d'Aumeries
Assistance for programming : Marc-Olivier Méhu
Technical & hardware support : Manuel Goepfert

Contact : metmap@orbifly.com




SOURCES & CREDITS :

   NOAA